sensor_id;sensor_type;location;lat;lon;timestamp;P1;durP1;ratioP1;P2;durP2;ratioP2
14007;SDS011;61651;45.508;12.232;2023-08-01T00:01:34;2.97;;;2.78;;
14007;SDS011;61651;45.508;12.232;2023-08-01T00:04:38;6.03;;;3.08;;
14007;SDS011;61651;45.508;12.232;2023-08-01T00:07:40;3.08;;;2.88;;
14007;SDS011;61651;45.508;12.232;2023-08-01T00:10:42;4.45;;;3.40;;
14007;SDS011;61651;45.508;12.232;2023-08-01T00:13:44;3.40;;;3.10;;
14007;SDS011;61651;45.508;12.232;2023-08-01T00:16:46;3.97;;;3.40;;
14007;SDS011;61651;45.508;12.232;2023-08-01T00:19:49;3.65;;;3.22;;
14007;SDS011;61651;45.508;12.232;2023-08-01T00:22:51;3.67;;;3.35;;
14007;SDS011;61651;45.508;12.232;2023-08-01T00:25:53;4.78;;;4.05;;
14007;SDS011;61651;45.508;12.232;2023-08-01T00:28:55;4.47;;;4.07;;
14007;SDS011;61651;45.508;12.232;2023-08-01T00:31:57;4.65;;;4.25;;
14007;SDS011;61651;45.508;12.232;2023-08-01T00:35:01;4.20;;;3.80;;
14007;SDS011;61651;45.508;12.232;2023-08-01T00:38:03;4.22;;;3.83;;
14007;SDS011;61651;45.508;12.232;2023-08-01T00:41:05;4.05;;;3.75;;
14007;SDS011;61651;45.508;12.232;2023-08-01T00:44:07;5.80;;;4.25;;
14007;SDS011;61651;45.508;12.232;2023-08-01T00:47:09;4.88;;;4.15;;
14007;SDS011;61651;45.508;12.232;2023-08-01T00:50:13;4.60;;;4.00;;
14007;SDS011;61651;45.508;12.232;2023-08-01T00:53:15;4.65;;;3.95;;
14007;SDS011;61651;45.508;12.232;2023-08-01T00:56:19;4.32;;;3.90;;
14007;SDS011;61651;45.508;12.232;2023-08-01T00:59:21;5.20;;;4.35;;
14007;SDS011;61651;45.508;12.232;2023-08-01T01:02:23;4.22;;;3.92;;
14007;SDS011;61651;45.508;12.232;2023-08-01T01:05:26;5.53;;;3.63;;
14007;SDS011;61651;45.508;12.232;2023-08-01T01:08:32;4.50;;;4.10;;
14007;SDS011;61651;45.508;12.232;2023-08-01T01:11:34;4.10;;;3.80;;
14007;SDS011;61651;45.508;12.232;2023-08-01T01:14:36;3.97;;;3.60;;
14007;SDS011;61651;45.508;12.232;2023-08-01T01:17:38;4.32;;;4.03;;
14007;SDS011;61651;45.508;12.232;2023-08-01T01:20:41;4.53;;;4.10;;
14007;SDS011;61651;45.508;12.232;2023-08-01T01:23:43;6.63;;;3.92;;
14007;SDS011;61651;45.508;12.232;2023-08-01T01:26:46;4.68;;;3.80;;
14007;SDS011;61651;45.508;12.232;2023-08-01T01:29:49;4.40;;;3.95;;
14007;SDS011;61651;45.508;12.232;2023-08-01T01:32:52;4.80;;;4.30;;
14007;SDS011;61651;45.508;12.232;2023-08-01T01:35:55;4.75;;;4.30;;
14007;SDS011;61651;45.508;12.232;2023-08-01T01:38:57;4.45;;;3.85;;
14007;SDS011;61651;45.508;12.232;2023-08-01T01:41:59;4.55;;;4.13;;
14007;SDS011;61651;45.508;12.232;2023-08-01T01:45:01;4.20;;;3.90;;
14007;SDS011;61651;45.508;12.232;2023-08-01T01:48:04;4.85;;;3.58;;
14007;SDS011;61651;45.508;12.232;2023-08-01T01:51:07;4.40;;;4.00;;
14007;SDS011;61651;45.508;12.232;2023-08-01T01:54:09;4.80;;;4.22;;
14007;SDS011;61651;45.508;12.232;2023-08-01T01:57:11;4.45;;;4.05;;
14007;SDS011;61651;45.508;12.232;2023-08-01T02:00:13;6.75;;;4.15;;
14007;SDS011;61651;45.508;12.232;2023-08-01T02:03:15;4.45;;;4.05;;
14007;SDS011;61651;45.508;12.232;2023-08-01T02:06:19;6.28;;;4.90;;
14007;SDS011;61651;45.508;12.232;2023-08-01T02:09:21;4.90;;;4.45;;
14007;SDS011;61651;45.508;12.232;2023-08-01T02:12:23;4.35;;;3.95;;
14007;SDS011;61651;45.508;12.232;2023-08-01T02:15:25;4.82;;;4.43;;
14007;SDS011;61651;45.508;12.232;2023-08-01T02:18:27;6.13;;;4.43;;
14007;SDS011;61651;45.508;12.232;2023-08-01T02:21:30;4.70;;;4.30;;
14007;SDS011;61651;45.508;12.232;2023-08-01T02:24:32;4.88;;;4.18;;
14007;SDS011;61651;45.508;12.232;2023-08-01T02:27:34;5.05;;;4.40;;
14007;SDS011;61651;45.508;12.232;2023-08-01T02:30:36;7.30;;;4.50;;
14007;SDS011;61651;45.508;12.232;2023-08-01T02:33:38;4.97;;;4.55;;
14007;SDS011;61651;45.508;12.232;2023-08-01T02:36:42;5.43;;;4.45;;
14007;SDS011;61651;45.508;12.232;2023-08-01T02:39:44;5.32;;;4.47;;
14007;SDS011;61651;45.508;12.232;2023-08-01T02:42:46;5.35;;;4.85;;
14007;SDS011;61651;45.508;12.232;2023-08-01T02:45:48;6.13;;;5.63;;
14007;SDS011;61651;45.508;12.232;2023-08-01T02:48:50;5.95;;;5.45;;
14007;SDS011;61651;45.508;12.232;2023-08-01T02:51:54;6.57;;;5.80;;
14007;SDS011;61651;45.508;12.232;2023-08-01T02:54:56;6.57;;;5.97;;
14007;SDS011;61651;45.508;12.232;2023-08-01T02:57:58;6.97;;;6.05;;
14007;SDS011;61651;45.508;12.232;2023-08-01T03:01:00;6.40;;;5.88;;
14007;SDS011;61651;45.508;12.232;2023-08-01T03:04:02;6.32;;;5.72;;
14007;SDS011;61651;45.508;12.232;2023-08-01T03:07:06;7.85;;;5.82;;
14007;SDS011;61651;45.508;12.232;2023-08-01T03:10:08;6.35;;;5.70;;
14007;SDS011;61651;45.508;12.232;2023-08-01T03:13:11;5.93;;;5.00;;
14007;SDS011;61651;45.508;12.232;2023-08-01T03:16:13;6.28;;;5.15;;
14007;SDS011;61651;45.508;12.232;2023-08-01T03:19:15;6.05;;;5.50;;
14007;SDS011;61651;45.508;12.232;2023-08-01T03:22:18;6.13;;;5.15;;
14007;SDS011;61651;45.508;12.232;2023-08-01T03:25:20;6.47;;;5.80;;
14007;SDS011;61651;45.508;12.232;2023-08-01T03:28:23;6.30;;;5.55;;
14007;SDS011;61651;45.508;12.232;2023-08-01T03:31:27;6.47;;;5.88;;
14007;SDS011;61651;45.508;12.232;2023-08-01T03:34:29;6.00;;;5.40;;
14007;SDS011;61651;45.508;12.232;2023-08-01T03:37:32;6.25;;;5.65;;
14007;SDS011;61651;45.508;12.232;2023-08-01T03:40:34;7.60;;;5.82;;
14007;SDS011;61651;45.508;12.232;2023-08-01T03:43:36;6.13;;;5.53;;
14007;SDS011;61651;45.508;12.232;2023-08-01T03:46:38;6.22;;;5.53;;
14007;SDS011;61651;45.508;12.232;2023-08-01T03:49:40;8.20;;;6.05;;
14007;SDS011;61651;45.508;12.232;2023-08-01T03:52:44;6.30;;;5.70;;
14007;SDS011;61651;45.508;12.232;2023-08-01T03:55:46;6.18;;;5.47;;
14007;SDS011;61651;45.508;12.232;2023-08-01T03:58:49;6.07;;;5.50;;
14007;SDS011;61651;45.508;12.232;2023-08-01T04:01:51;6.20;;;5.55;;
14007;SDS011;61651;45.508;12.232;2023-08-01T04:04:53;5.30;;;4.80;;
14007;SDS011;61651;45.508;12.232;2023-08-01T04:07:56;5.85;;;5.25;;
14007;SDS011;61651;45.508;12.232;2023-08-01T04:10:58;6.43;;;5.82;;
14007;SDS011;61651;45.508;12.232;2023-08-01T04:14:00;6.40;;;5.22;;
14007;SDS011;61651;45.508;12.232;2023-08-01T04:17:02;5.30;;;4.80;;
14007;SDS011;61651;45.508;12.232;2023-08-01T04:20:05;6.57;;;4.68;;
14007;SDS011;61651;45.508;12.232;2023-08-01T04:23:09;5.18;;;4.70;;
14007;SDS011;61651;45.508;12.232;2023-08-01T04:26:11;4.95;;;4.55;;
14007;SDS011;61651;45.508;12.232;2023-08-01T04:29:13;4.68;;;4.28;;
14007;SDS011;61651;45.508;12.232;2023-08-01T04:32:18;5.60;;;5.10;;
14007;SDS011;61651;45.508;12.232;2023-08-01T04:35:20;6.10;;;5.50;;
14007;SDS011;61651;45.508;12.232;2023-08-01T04:38:23;5.75;;;5.25;;
14007;SDS011;61651;45.508;12.232;2023-08-01T04:41:25;5.55;;;5.05;;
14007;SDS011;61651;45.508;12.232;2023-08-01T04:44:28;7.43;;;5.78;;
14007;SDS011;61651;45.508;12.232;2023-08-01T04:47:30;6.45;;;5.85;;
14007;SDS011;61651;45.508;12.232;2023-08-01T04:50:32;6.43;;;5.45;;
14007;SDS011;61651;45.508;12.232;2023-08-01T04:53:35;6.93;;;5.95;;
14007;SDS011;61651;45.508;12.232;2023-08-01T04:56:37;6.00;;;5.50;;
14007;SDS011;61651;45.508;12.232;2023-08-01T04:59:39;6.68;;;5.95;;
14007;SDS011;61651;45.508;12.232;2023-08-01T05:02:41;7.07;;;6.38;;
14007;SDS011;61651;45.508;12.232;2023-08-01T05:05:43;6.57;;;5.95;;
14007;SDS011;61651;45.508;12.232;2023-08-01T05:08:47;7.78;;;5.68;;
14007;SDS011;61651;45.508;12.232;2023-08-01T05:11:49;7.82;;;6.10;;
14007;SDS011;61651;45.508;12.232;2023-08-01T05:14:51;5.70;;;5.20;;
14007;SDS011;61651;45.508;12.232;2023-08-01T05:17:53;6.20;;;5.70;;
14007;SDS011;61651;45.508;12.232;2023-08-01T05:20:55;7.75;;;6.07;;
14007;SDS011;61651;45.508;12.232;2023-08-01T05:23:59;6.55;;;5.75;;
14007;SDS011;61651;45.508;12.232;2023-08-01T05:27:01;7.22;;;5.32;;
14007;SDS011;61651;45.508;12.232;2023-08-01T05:30:03;6.53;;;5.40;;
14007;SDS011;61651;45.508;12.232;2023-08-01T05:33:06;7.07;;;6.38;;
14007;SDS011;61651;45.508;12.232;2023-08-01T05:36:08;7.93;;;5.45;;
14007;SDS011;61651;45.508;12.232;2023-08-01T05:39:12;7.80;;;6.40;;
14007;SDS011;61651;45.508;12.232;2023-08-01T05:42:13;6.28;;;5.20;;
14007;SDS011;61651;45.508;12.232;2023-08-01T05:45:15;6.85;;;6.10;;
14007;SDS011;61651;45.508;12.232;2023-08-01T05:48:18;8.15;;;7.35;;
14007;SDS011;61651;45.508;12.232;2023-08-01T05:51:20;8.60;;;7.72;;
14007;SDS011;61651;45.508;12.232;2023-08-01T05:54:23;7.47;;;6.78;;
14007;SDS011;61651;45.508;12.232;2023-08-01T05:57:25;7.88;;;7.07;;
14007;SDS011;61651;45.508;12.232;2023-08-01T06:00:27;8.57;;;7.53;;
14007;SDS011;61651;45.508;12.232;2023-08-01T06:03:30;8.27;;;7.45;;
14007;SDS011;61651;45.508;12.232;2023-08-01T06:06:32;9.02;;;7.20;;
14007;SDS011;61651;45.508;12.232;2023-08-01T06:09:36;6.75;;;6.10;;
14007;SDS011;61651;45.508;12.232;2023-08-01T06:12:38;8.10;;;7.00;;
14007;SDS011;61651;45.508;12.232;2023-08-01T06:15:40;7.18;;;6.47;;
14007;SDS011;61651;45.508;12.232;2023-08-01T06:18:42;7.30;;;5.60;;
14007;SDS011;61651;45.508;12.232;2023-08-01T06:21:44;5.53;;;4.97;;
14007;SDS011;61651;45.508;12.232;2023-08-01T06:24:47;6.97;;;6.07;;
14007;SDS011;61651;45.508;12.232;2023-08-01T06:27:49;7.57;;;4.47;;
14007;SDS011;61651;45.508;12.232;2023-08-01T06:30:51;6.72;;;5.05;;
14007;SDS011;61651;45.508;12.232;2023-08-01T06:33:53;7.32;;;4.70;;
14007;SDS011;61651;45.508;12.232;2023-08-01T06:36:56;6.32;;;4.40;;
14007;SDS011;61651;45.508;12.232;2023-08-01T06:40:00;5.53;;;4.32;;
14007;SDS011;61651;45.508;12.232;2023-08-01T06:43:04;5.30;;;4.28;;
14007;SDS011;61651;45.508;12.232;2023-08-01T06:46:06;5.28;;;4.15;;
14007;SDS011;61651;45.508;12.232;2023-08-01T06:49:08;4.38;;;3.97;;
14007;SDS011;61651;45.508;12.232;2023-08-01T06:52:10;5.43;;;3.70;;
14007;SDS011;61651;45.508;12.232;2023-08-01T06:55:14;4.15;;;3.75;;
14007;SDS011;61651;45.508;12.232;2023-08-01T06:58:16;4.78;;;3.53;;
14007;SDS011;61651;45.508;12.232;2023-08-01T07:01:18;3.83;;;3.50;;
14007;SDS011;61651;45.508;12.232;2023-08-01T07:04:20;4.25;;;3.85;;
14007;SDS011;61651;45.508;12.232;2023-08-01T07:07:23;4.88;;;4.47;;
14007;SDS011;61651;45.508;12.232;2023-08-01T07:10:27;11.68;;;5.28;;
14007;SDS011;61651;45.508;12.232;2023-08-01T07:13:29;6.38;;;5.15;;
14007;SDS011;61651;45.508;12.232;2023-08-01T07:16:31;6.47;;;5.90;;
14007;SDS011;61651;45.508;12.232;2023-08-01T07:19:33;7.72;;;6.00;;
14007;SDS011;61651;45.508;12.232;2023-08-01T07:22:36;6.65;;;6.05;;
14007;SDS011;61651;45.508;12.232;2023-08-01T07:25:40;7.97;;;7.18;;
14007;SDS011;61651;45.508;12.232;2023-08-01T07:28:42;7.95;;;7.22;;
14007;SDS011;61651;45.508;12.232;2023-08-01T07:31:44;7.95;;;7.15;;
14007;SDS011;61651;45.508;12.232;2023-08-01T07:34:46;6.75;;;6.07;;
14007;SDS011;61651;45.508;12.232;2023-08-01T07:37:48;6.70;;;6.10;;
14007;SDS011;61651;45.508;12.232;2023-08-01T07:40:51;6.45;;;5.60;;
14007;SDS011;61651;45.508;12.232;2023-08-01T07:43:53;6.78;;;4.95;;
14007;SDS011;61651;45.508;12.232;2023-08-01T07:46:55;6.70;;;5.30;;
14007;SDS011;61651;45.508;12.232;2023-08-01T07:49:58;5.32;;;4.82;;
14007;SDS011;61651;45.508;12.232;2023-08-01T07:53:01;4.43;;;4.03;;
14007;SDS011;61651;45.508;12.232;2023-08-01T07:56:05;5.07;;;4.57;;
14007;SDS011;61651;45.508;12.232;2023-08-01T07:59:08;6.70;;;5.95;;
14007;SDS011;61651;45.508;12.232;2023-08-01T08:02:10;6.25;;;5.10;;
14007;SDS011;61651;45.508;12.232;2023-08-01T08:05:12;6.10;;;5.60;;
14007;SDS011;61651;45.508;12.232;2023-08-01T08:08:14;6.60;;;5.55;;
14007;SDS011;61651;45.508;12.232;2023-08-01T08:11:18;6.28;;;5.72;;
14007;SDS011;61651;45.508;12.232;2023-08-01T08:14:20;5.50;;;5.00;;
14007;SDS011;61651;45.508;12.232;2023-08-01T08:17:23;5.38;;;4.88;;
14007;SDS011;61651;45.508;12.232;2023-08-01T08:20:25;5.80;;;4.45;;
14007;SDS011;61651;45.508;12.232;2023-08-01T08:23:27;6.30;;;4.07;;
14007;SDS011;61651;45.508;12.232;2023-08-01T08:26:30;4.75;;;4.28;;
14007;SDS011;61651;45.508;12.232;2023-08-01T08:29:34;4.75;;;4.20;;
14007;SDS011;61651;45.508;12.232;2023-08-01T08:32:36;5.80;;;3.70;;
14007;SDS011;61651;45.508;12.232;2023-08-01T08:35:38;4.00;;;3.70;;
14007;SDS011;61651;45.508;12.232;2023-08-01T08:38:40;5.30;;;3.78;;
14007;SDS011;61651;45.508;12.232;2023-08-01T08:41:45;3.70;;;3.40;;
14007;SDS011;61651;45.508;12.232;2023-08-01T08:44:49;4.72;;;4.22;;
14007;SDS011;61651;45.508;12.232;2023-08-01T08:47:55;4.28;;;3.92;;
14007;SDS011;61651;45.508;12.232;2023-08-01T08:51:02;8.02;;;5.10;;
14007;SDS011;61651;45.508;12.232;2023-08-01T08:54:05;5.13;;;4.63;;
14007;SDS011;61651;45.508;12.232;2023-08-01T08:57:08;5.60;;;4.45;;
14007;SDS011;61651;45.508;12.232;2023-08-01T09:00:11;4.00;;;3.67;;
14007;SDS011;61651;45.508;12.232;2023-08-01T09:03:15;5.60;;;5.07;;
14007;SDS011;61651;45.508;12.232;2023-08-01T09:06:17;4.35;;;3.90;;
14007;SDS011;61651;45.508;12.232;2023-08-01T09:09:24;4.90;;;4.50;;
14007;SDS011;61651;45.508;12.232;2023-08-01T09:12:29;5.57;;;4.70;;
14007;SDS011;61651;45.508;12.232;2023-08-01T09:15:35;4.90;;;4.20;;
14007;SDS011;61651;45.508;12.232;2023-08-01T09:18:46;4.50;;;3.30;;
14007;SDS011;61651;45.508;12.232;2023-08-01T09:21:49;3.33;;;3.03;;
14007;SDS011;61651;45.508;12.232;2023-08-01T09:24:52;7.15;;;3.78;;
14007;SDS011;61651;45.508;12.232;2023-08-01T09:27:56;3.90;;;3.55;;
14007;SDS011;61651;45.508;12.232;2023-08-01T09:30:58;3.42;;;3.05;;
14007;SDS011;61651;45.508;12.232;2023-08-01T09:34:00;5.57;;;3.35;;
14007;SDS011;61651;45.508;12.232;2023-08-01T09:37:04;3.60;;;3.30;;
14007;SDS011;61651;45.508;12.232;2023-08-01T09:40:07;3.40;;;3.10;;
14007;SDS011;61651;45.508;12.232;2023-08-01T09:43:11;4.00;;;3.42;;
14007;SDS011;61651;45.508;12.232;2023-08-01T09:46:14;3.90;;;3.42;;
14007;SDS011;61651;45.508;12.232;2023-08-01T09:49:16;4.45;;;2.80;;
14007;SDS011;61651;45.508;12.232;2023-08-01T09:52:26;3.33;;;3.03;;
14007;SDS011;61651;45.508;12.232;2023-08-01T09:55:30;5.88;;;2.80;;
14007;SDS011;61651;45.508;12.232;2023-08-01T09:58:34;6.60;;;3.08;;
14007;SDS011;61651;45.508;12.232;2023-08-01T10:01:38;3.40;;;3.10;;
14007;SDS011;61651;45.508;12.232;2023-08-01T10:04:41;3.83;;;3.45;;
14007;SDS011;61651;45.508;12.232;2023-08-01T10:07:44;3.50;;;3.20;;
14007;SDS011;61651;45.508;12.232;2023-08-01T10:10:47;2.85;;;2.65;;
14007;SDS011;61651;45.508;12.232;2023-08-01T10:13:51;2.75;;;2.53;;
14007;SDS011;61651;45.508;12.232;2023-08-01T10:16:53;3.90;;;3.05;;
14007;SDS011;61651;45.508;12.232;2023-08-01T10:19:56;3.38;;;3.10;;
14007;SDS011;61651;45.508;12.232;2023-08-01T10:22:58;4.03;;;3.10;;
14007;SDS011;61651;45.508;12.232;2023-08-01T10:26:03;3.17;;;2.88;;
14007;SDS011;61651;45.508;12.232;2023-08-01T10:29:09;2.63;;;2.40;;
14007;SDS011;61651;45.508;12.232;2023-08-01T10:32:14;4.40;;;2.90;;
14007;SDS011;61651;45.508;12.232;2023-08-01T10:35:17;3.55;;;3.22;;
14007;SDS011;61651;45.508;12.232;2023-08-01T10:38:19;4.25;;;2.80;;
14007;SDS011;61651;45.508;12.232;2023-08-01T10:41:24;3.88;;;2.90;;
14007;SDS011;61651;45.508;12.232;2023-08-01T10:44:29;3.65;;;2.72;;
14007;SDS011;61651;45.508;12.232;2023-08-01T10:47:33;2.97;;;2.67;;
14007;SDS011;61651;45.508;12.232;2023-08-01T10:50:35;3.10;;;2.85;;
14007;SDS011;61651;45.508;12.232;2023-08-01T10:53:37;2.67;;;2.47;;
14007;SDS011;61651;45.508;12.232;2023-08-01T10:56:42;3.30;;;3.00;;
14007;SDS011;61651;45.508;12.232;2023-08-01T10:59:47;3.30;;;2.83;;
14007;SDS011;61651;45.508;12.232;2023-08-01T11:02:50;3.10;;;2.90;;
14007;SDS011;61651;45.508;12.232;2023-08-01T11:05:56;3.33;;;3.03;;
14007;SDS011;61651;45.508;12.232;2023-08-01T11:08:58;2.70;;;2.50;;
14007;SDS011;61651;45.508;12.232;2023-08-01T11:12:00;3.00;;;2.80;;
14007;SDS011;61651;45.508;12.232;2023-08-01T11:15:05;3.40;;;3.10;;
14007;SDS011;61651;45.508;12.232;2023-08-01T11:18:09;3.08;;;2.60;;
14007;SDS011;61651;45.508;12.232;2023-08-01T11:21:11;2.97;;;2.78;;
14007;SDS011;61651;45.508;12.232;2023-08-01T11:24:14;2.85;;;2.65;;
14007;SDS011;61651;45.508;12.232;2023-08-01T11:27:16;3.22;;;2.92;;
14007;SDS011;61651;45.508;12.232;2023-08-01T11:30:21;3.53;;;3.22;;
14007;SDS011;61651;45.508;12.232;2023-08-01T11:33:31;3.25;;;2.95;;
14007;SDS011;61651;45.508;12.232;2023-08-01T11:36:33;3.35;;;3.05;;
14007;SDS011;61651;45.508;12.232;2023-08-01T11:39:35;3.60;;;3.30;;
14007;SDS011;61651;45.508;12.232;2023-08-01T11:42:38;4.07;;;3.33;;
14007;SDS011;61651;45.508;12.232;2023-08-01T11:45:49;2.83;;;2.63;;
14007;SDS011;61651;45.508;12.232;2023-08-01T11:48:51;3.25;;;2.95;;
14007;SDS011;61651;45.508;12.232;2023-08-01T11:51:53;3.55;;;3.25;;
14007;SDS011;61651;45.508;12.232;2023-08-01T11:54:55;3.20;;;2.90;;
14007;SDS011;61651;45.508;12.232;2023-08-01T11:57:58;2.95;;;2.75;;
14007;SDS011;61651;45.508;12.232;2023-08-01T12:01:05;3.03;;;2.83;;
14007;SDS011;61651;45.508;12.232;2023-08-01T12:04:08;3.42;;;3.13;;
14007;SDS011;61651;45.508;12.232;2023-08-01T12:07:12;3.45;;;3.15;;
14007;SDS011;61651;45.508;12.232;2023-08-01T12:10:14;4.20;;;3.08;;
14007;SDS011;61651;45.508;12.232;2023-08-01T12:13:20;4.40;;;3.20;;
14007;SDS011;61651;45.508;12.232;2023-08-01T12:16:24;4.22;;;3.13;;
14007;SDS011;61651;45.508;12.232;2023-08-01T12:19:26;5.78;;;3.28;;
14007;SDS011;61651;45.508;12.232;2023-08-01T12:22:28;3.10;;;2.90;;
14007;SDS011;61651;45.508;12.232;2023-08-01T12:25:30;3.80;;;3.40;;
14007;SDS011;61651;45.508;12.232;2023-08-01T12:28:32;3.28;;;3.00;;
14007;SDS011;61651;45.508;12.232;2023-08-01T12:31:36;3.58;;;3.15;;
14007;SDS011;61651;45.508;12.232;2023-08-01T12:34:38;3.80;;;3.50;;
14007;SDS011;61651;45.508;12.232;2023-08-01T12:37:40;3.55;;;3.25;;
14007;SDS011;61651;45.508;12.232;2023-08-01T12:40:42;3.38;;;3.08;;
14007;SDS011;61651;45.508;12.232;2023-08-01T12:43:44;6.13;;;3.00;;
14007;SDS011;61651;45.508;12.232;2023-08-01T12:46:47;3.63;;;3.15;;
14007;SDS011;61651;45.508;12.232;2023-08-01T12:49:49;4.28;;;3.53;;
14007;SDS011;61651;45.508;12.232;2023-08-01T12:52:51;3.80;;;3.47;;
14007;SDS011;61651;45.508;12.232;2023-08-01T12:55:53;3.97;;;3.40;;
14007;SDS011;61651;45.508;12.232;2023-08-01T12:58:55;3.33;;;3.03;;
14007;SDS011;61651;45.508;12.232;2023-08-01T13:01:59;3.58;;;3.08;;
14007;SDS011;61651;45.508;12.232;2023-08-01T13:05:01;4.95;;;3.25;;
14007;SDS011;61651;45.508;12.232;2023-08-01T13:08:03;3.42;;;3.10;;
14007;SDS011;61651;45.508;12.232;2023-08-01T13:11:12;3.50;;;3.00;;
14007;SDS011;61651;45.508;12.232;2023-08-01T13:14:14;3.28;;;2.92;;
14007;SDS011;61651;45.508;12.232;2023-08-01T13:17:18;5.03;;;4.25;;
14007;SDS011;61651;45.508;12.232;2023-08-01T13:20:20;3.38;;;3.08;;
14007;SDS011;61651;45.508;12.232;2023-08-01T13:23:22;3.47;;;3.17;;
14007;SDS011;61651;45.508;12.232;2023-08-01T13:26:24;3.17;;;2.88;;
14007;SDS011;61651;45.508;12.232;2023-08-01T13:29:26;4.53;;;3.22;;
14007;SDS011;61651;45.508;12.232;2023-08-01T13:32:30;4.97;;;2.97;;
14007;SDS011;61651;45.508;12.232;2023-08-01T13:35:32;5.60;;;3.30;;
14007;SDS011;61651;45.508;12.232;2023-08-01T13:38:34;3.45;;;3.10;;
14007;SDS011;61651;45.508;12.232;2023-08-01T13:41:36;3.00;;;2.80;;
14007;SDS011;61651;45.508;12.232;2023-08-01T13:44:38;4.72;;;3.28;;
14007;SDS011;61651;45.508;12.232;2023-08-01T13:47:43;4.10;;;2.90;;
14007;SDS011;61651;45.508;12.232;2023-08-01T13:50:45;6.07;;;3.10;;
14007;SDS011;61651;45.508;12.232;2023-08-01T13:53:47;2.90;;;2.70;;
14007;SDS011;61651;45.508;12.232;2023-08-01T13:56:49;4.05;;;3.08;;
14007;SDS011;61651;45.508;12.232;2023-08-01T13:59:52;2.95;;;2.65;;
14007;SDS011;61651;45.508;12.232;2023-08-01T14:02:55;2.80;;;2.60;;
14007;SDS011;61651;45.508;12.232;2023-08-01T14:06:02;3.45;;;3.15;;
14007;SDS011;61651;45.508;12.232;2023-08-01T14:09:05;4.85;;;3.50;;
14007;SDS011;61651;45.508;12.232;2023-08-01T14:12:08;3.15;;;2.85;;
14007;SDS011;61651;45.508;12.232;2023-08-01T14:15:10;3.85;;;3.28;;
14007;SDS011;61651;45.508;12.232;2023-08-01T14:18:14;3.35;;;3.15;;
14007;SDS011;61651;45.508;12.232;2023-08-01T14:21:16;4.63;;;3.13;;
14007;SDS011;61651;45.508;12.232;2023-08-01T14:24:18;5.35;;;3.22;;
14007;SDS011;61651;45.508;12.232;2023-08-01T14:27:20;4.18;;;3.20;;
14007;SDS011;61651;45.508;12.232;2023-08-01T14:30:22;4.07;;;3.60;;
14007;SDS011;61651;45.508;12.232;2023-08-01T14:33:25;3.72;;;3.42;;
14007;SDS011;61651;45.508;12.232;2023-08-01T14:36:28;3.33;;;3.03;;
14007;SDS011;61651;45.508;12.232;2023-08-01T14:39:29;4.85;;;3.75;;
14007;SDS011;61651;45.508;12.232;2023-08-01T14:42:32;4.68;;;3.63;;
14007;SDS011;61651;45.508;12.232;2023-08-01T14:45:36;5.00;;;3.20;;
14007;SDS011;61651;45.508;12.232;2023-08-01T14:48:41;3.60;;;3.20;;
14007;SDS011;61651;45.508;12.232;2023-08-01T14:51:43;5.43;;;3.20;;
14007;SDS011;61651;45.508;12.232;2023-08-01T14:54:45;3.67;;;3.10;;
14007;SDS011;61651;45.508;12.232;2023-08-01T14:57:47;4.13;;;3.75;;
14007;SDS011;61651;45.508;12.232;2023-08-01T15:00:49;5.40;;;3.10;;
14007;SDS011;61651;45.508;12.232;2023-08-01T15:03:52;4.45;;;3.17;;
14007;SDS011;61651;45.508;12.232;2023-08-01T15:06:55;3.20;;;2.90;;
14007;SDS011;61651;45.508;12.232;2023-08-01T15:09:57;5.75;;;3.20;;
14007;SDS011;61651;45.508;12.232;2023-08-01T15:12:59;4.32;;;3.92;;
14007;SDS011;61651;45.508;12.232;2023-08-01T15:16:01;5.35;;;4.20;;
14007;SDS011;61651;45.508;12.232;2023-08-01T15:19:04;3.75;;;3.45;;
14007;SDS011;61651;45.508;12.232;2023-08-01T15:22:06;4.25;;;3.42;;
14007;SDS011;61651;45.508;12.232;2023-08-01T15:25:08;3.85;;;3.30;;
14007;SDS011;61651;45.508;12.232;2023-08-01T15:28:10;5.90;;;3.47;;
14007;SDS011;61651;45.508;12.232;2023-08-01T15:31:12;5.43;;;3.90;;
14007;SDS011;61651;45.508;12.232;2023-08-01T15:34:16;4.20;;;3.47;;
14007;SDS011;61651;45.508;12.232;2023-08-01T15:37:20;7.13;;;5.13;;
14007;SDS011;61651;45.508;12.232;2023-08-01T15:40:22;6.15;;;4.47;;
14007;SDS011;61651;45.508;12.232;2023-08-01T15:43:24;5.00;;;4.40;;
14007;SDS011;61651;45.508;12.232;2023-08-01T15:46:27;4.53;;;4.05;;
14007;SDS011;61651;45.508;12.232;2023-08-01T15:49:31;5.20;;;4.13;;
14007;SDS011;61651;45.508;12.232;2023-08-01T15:52:33;4.68;;;4.20;;
14007;SDS011;61651;45.508;12.232;2023-08-01T15:55:35;6.05;;;4.43;;
14007;SDS011;61651;45.508;12.232;2023-08-01T15:58:37;5.00;;;4.60;;
14007;SDS011;61651;45.508;12.232;2023-08-01T16:01:39;4.85;;;4.10;;
14007;SDS011;61651;45.508;12.232;2023-08-01T16:04:43;4.22;;;3.80;;
14007;SDS011;61651;45.508;12.232;2023-08-01T16:07:45;5.47;;;4.03;;
14007;SDS011;61651;45.508;12.232;2023-08-01T16:10:47;4.78;;;3.85;;
14007;SDS011;61651;45.508;12.232;2023-08-01T16:13:49;4.10;;;3.70;;
14007;SDS011;61651;45.508;12.232;2023-08-01T16:16:51;4.13;;;3.72;;
14007;SDS011;61651;45.508;12.232;2023-08-01T16:19:54;5.55;;;5.07;;
14007;SDS011;61651;45.508;12.232;2023-08-01T16:22:56;4.63;;;3.85;;
14007;SDS011;61651;45.508;12.232;2023-08-01T16:25:58;4.90;;;4.38;;
14007;SDS011;61651;45.508;12.232;2023-08-01T16:29:02;4.60;;;3.72;;
14007;SDS011;61651;45.508;12.232;2023-08-01T16:32:05;4.25;;;3.85;;
14007;SDS011;61651;45.508;12.232;2023-08-01T16:35:09;4.60;;;4.18;;
14007;SDS011;61651;45.508;12.232;2023-08-01T16:38:11;5.22;;;3.85;;
14007;SDS011;61651;45.508;12.232;2023-08-01T16:41:13;7.50;;;3.97;;
14007;SDS011;61651;45.508;12.232;2023-08-01T16:44:21;5.85;;;4.10;;
14007;SDS011;61651;45.508;12.232;2023-08-01T16:47:23;4.47;;;4.05;;
14007;SDS011;61651;45.508;12.232;2023-08-01T16:50:26;4.93;;;4.15;;
14007;SDS011;61651;45.508;12.232;2023-08-01T16:53:28;4.78;;;4.30;;
14007;SDS011;61651;45.508;12.232;2023-08-01T16:56:30;5.05;;;4.65;;
14007;SDS011;61651;45.508;12.232;2023-08-01T16:59:32;5.88;;;4.65;;
14007;SDS011;61651;45.508;12.232;2023-08-01T17:02:36;6.15;;;4.50;;
14007;SDS011;61651;45.508;12.232;2023-08-01T17:05:39;5.25;;;4.43;;
14007;SDS011;61651;45.508;12.232;2023-08-01T17:08:41;4.65;;;4.22;;
14007;SDS011;61651;45.508;12.232;2023-08-01T17:11:44;4.90;;;4.45;;
14007;SDS011;61651;45.508;12.232;2023-08-01T17:14:45;6.50;;;4.10;;
14007;SDS011;61651;45.508;12.232;2023-08-01T17:17:47;4.85;;;3.80;;
14007;SDS011;61651;45.508;12.232;2023-08-01T17:20:51;5.15;;;4.15;;
14007;SDS011;61651;45.508;12.232;2023-08-01T17:23:54;4.90;;;4.10;;
14007;SDS011;61651;45.508;12.232;2023-08-01T17:26:57;4.40;;;4.00;;
14007;SDS011;61651;45.508;12.232;2023-08-01T17:29:59;4.13;;;3.72;;
14007;SDS011;61651;45.508;12.232;2023-08-01T17:33:02;4.80;;;3.95;;
14007;SDS011;61651;45.508;12.232;2023-08-01T17:36:06;3.88;;;3.58;;
14007;SDS011;61651;45.508;12.232;2023-08-01T17:39:08;4.18;;;3.70;;
14007;SDS011;61651;45.508;12.232;2023-08-01T17:42:10;4.20;;;3.80;;
14007;SDS011;61651;45.508;12.232;2023-08-01T17:45:12;4.20;;;3.80;;
14007;SDS011;61651;45.508;12.232;2023-08-01T17:48:14;5.50;;;3.97;;
14007;SDS011;61651;45.508;12.232;2023-08-01T17:51:18;4.20;;;3.80;;
14007;SDS011;61651;45.508;12.232;2023-08-01T17:54:21;4.13;;;3.78;;
14007;SDS011;61651;45.508;12.232;2023-08-01T17:57:23;4.38;;;4.03;;
14007;SDS011;61651;45.508;12.232;2023-08-01T18:00:25;4.65;;;3.92;;
14007;SDS011;61651;45.508;12.232;2023-08-01T18:03:27;5.28;;;4.88;;